sensor_id;sensor_type;location;lat;lon;timestamp;temperature;humidity
7163;DHT22;3623;47.098;15.446;2023-03-14T00:02:23;8.90;99.90
7163;DHT22;3623;47.098;15.446;2023-03-14T00:04:57;9.10;99.90
7163;DHT22;3623;47.098;15.446;2023-03-14T00:07:24;9.10;99.90
7163;DHT22;3623;47.098;15.446;2023-03-14T00:09:52;9.10;99.90
7163;DHT22;3623;47.098;15.446;2023-03-14T00:12:19;9.30;99.90
7163;DHT22;3623;47.098;15.446;2023-03-14T00:14:51;9.20;99.90
7163;DHT22;3623;47.098;15.446;2023-03-14T00:17:18;8.80;99.90
7163;DHT22;3623;47.098;15.446;2023-03-14T00:19:47;8.50;99.90
7163;DHT22;3623;47.098;15.446;2023-03-14T00:22:17;8.30;99.90
7163;DHT22;3623;47.098;15.446;2023-03-14T00:24:51;8.50;99.90
7163;DHT22;3623;47.098;15.446;2023-03-14T00:27:18;8.40;99.90
7163;DHT22;3623;47.098;15.446;2023-03-14T00:29:45;8.40;99.90
7163;DHT22;3623;47.098;15.446;2023-03-14T00:32:12;8.90;99.90
7163;DHT22;3623;47.098;15.446;2023-03-14T00:34:54;9.10;99.90
7163;DHT22;3623;47.098;15.446;2023-03-14T00:37:21;9.20;99.90
7163;DHT22;3623;47.098;15.446;2023-03-14T00:39:50;9.10;99.90
7163;DHT22;3623;47.098;15.446;2023-03-14T00:42:18;9.10;99.90
7163;DHT22;3623;47.098;15.446;2023-03-14T00:44:51;9.20;99.90
7163;DHT22;3623;47.098;15.446;2023-03-14T00:47:18;9.30;99.90
7163;DHT22;3623;47.098;15.446;2023-03-14T00:49:45;9.30;99.90
7163;DHT22;3623;47.098;15.446;2023-03-14T00:52:14;9.20;99.90
7163;DHT22;3623;47.098;15.446;2023-03-14T00:54:48;8.90;99.90
7163;DHT22;3623;47.098;15.446;2023-03-14T00:57:15;8.90;99.90
7163;DHT22;3623;47.098;15.446;2023-03-14T00:59:42;9.10;99.90
7163;DHT22;3623;47.098;15.446;2023-03-14T01:02:09;9.30;99.90
7163;DHT22;3623;47.098;15.446;2023-03-14T01:04:37;9.70;99.90
7163;DHT22;3623;47.098;15.446;2023-03-14T01:07:05;10.20;99.90
7163;DHT22;3623;47.098;15.446;2023-03-14T01:09:33;10.30;99.90
7163;DHT22;3623;47.098;15.446;2023-03-14T01:12:00;10.00;99.90
7163;DHT22;3623;47.098;15.446;2023-03-14T01:14:29;9.60;99.90
7163;DHT22;3623;47.098;15.446;2023-03-14T01:16:56;9.50;99.90
7163;DHT22;3623;47.098;15.446;2023-03-14T01:19:26;9.30;99.90
7163;DHT22;3623;47.098;15.446;2023-03-14T01:21:54;9.40;99.90
7163;DHT22;3623;47.098;15.446;2023-03-14T01:24:24;9.40;99.90
7163;DHT22;3623;47.098;15.446;2023-03-14T01:26:52;9.30;99.90
7163;DHT22;3623;47.098;15.446;2023-03-14T01:29:20;9.30;99.90
7163;DHT22;3623;47.098;15.446;2023-03-14T01:31:47;9.00;99.90
7163;DHT22;3623;47.098;15.446;2023-03-14T01:34:16;9.20;99.90
7163;DHT22;3623;47.098;15.446;2023-03-14T01:36:43;9.20;99.90
7163;DHT22;3623;47.098;15.446;2023-03-14T01:39:11;9.00;99.90
7163;DHT22;3623;47.098;15.446;2023-03-14T01:41:39;9.00;99.90
7163;DHT22;3623;47.098;15.446;2023-03-14T01:44:10;8.90;99.90
7163;DHT22;3623;47.098;15.446;2023-03-14T01:46:39;8.90;99.90
7163;DHT22;3623;47.098;15.446;2023-03-14T01:49:17;8.90;99.90
7163;DHT22;3623;47.098;15.446;2023-03-14T01:51:51;9.10;99.90
7163;DHT22;3623;47.098;15.446;2023-03-14T01:54:26;9.30;99.90
7163;DHT22;3623;47.098;15.446;2023-03-14T01:56:58;9.50;99.90
7163;DHT22;3623;47.098;15.446;2023-03-14T01:59:29;9.50;99.90
7163;DHT22;3623;47.098;15.446;2023-03-14T02:01:58;9.50;99.90
7163;DHT22;3623;47.098;15.446;2023-03-14T02:04:38;9.20;99.90
7163;DHT22;3623;47.098;15.446;2023-03-14T02:07:09;9.10;99.90
7163;DHT22;3623;47.098;15.446;2023-03-14T02:09:40;8.80;99.90
7163;DHT22;3623;47.098;15.446;2023-03-14T02:12:08;8.60;99.90
7163;DHT22;3623;47.098;15.446;2023-03-14T02:14:47;8.50;99.90
7163;DHT22;3623;47.098;15.446;2023-03-14T02:17:16;8.40;99.90
7163;DHT22;3623;47.098;15.446;2023-03-14T02:20:03;8.30;99.90
7163;DHT22;3623;47.098;15.446;2023-03-14T02:22:34;8.20;99.90
7163;DHT22;3623;47.098;15.446;2023-03-14T02:25:08;8.40;99.90
7163;DHT22;3623;47.098;15.446;2023-03-14T02:27:37;9.10;99.90
7163;DHT22;3623;47.098;15.446;2023-03-14T02:30:06;9.10;99.90
7163;DHT22;3623;47.098;15.446;2023-03-14T02:32:36;9.50;99.90
7163;DHT22;3623;47.098;15.446;2023-03-14T02:35:08;9.50;99.90
7163;DHT22;3623;47.098;15.446;2023-03-14T02:37:40;9.40;99.90
7163;DHT22;3623;47.098;15.446;2023-03-14T02:40:09;9.30;99.90
7163;DHT22;3623;47.098;15.446;2023-03-14T02:42:38;9.20;99.90
7163;DHT22;3623;47.098;15.446;2023-03-14T02:45:36;9.10;99.90
7163;DHT22;3623;47.098;15.446;2023-03-14T02:48:07;9.10;99.90
7163;DHT22;3623;47.098;15.446;2023-03-14T02:50:34;9.30;99.90
7163;DHT22;3623;47.098;15.446;2023-03-14T02:53:02;9.50;99.90
7163;DHT22;3623;47.098;15.446;2023-03-14T02:55:30;9.10;99.90
7163;DHT22;3623;47.098;15.446;2023-03-14T02:57:59;8.60;99.90
7163;DHT22;3623;47.098;15.446;2023-03-14T03:00:26;8.40;99.90
7163;DHT22;3623;47.098;15.446;2023-03-14T03:02:53;8.40;99.90
7163;DHT22;3623;47.098;15.446;2023-03-14T03:05:21;8.50;99.90
7163;DHT22;3623;47.098;15.446;2023-03-14T03:07:48;8.30;99.90
7163;DHT22;3623;47.098;15.446;2023-03-14T03:10:16;8.20;99.90
7163;DHT22;3623;47.098;15.446;2023-03-14T03:12:43;8.20;99.90
7163;DHT22;3623;47.098;15.446;2023-03-14T03:15:15;8.50;99.90
7163;DHT22;3623;47.098;15.446;2023-03-14T03:17:42;8.60;99.90
7163;DHT22;3623;47.098;15.446;2023-03-14T03:20:10;8.60;99.90
7163;DHT22;3623;47.098;15.446;2023-03-14T03:22:38;8.60;99.90
7163;DHT22;3623;47.098;15.446;2023-03-14T03:25:08;8.50;99.90
7163;DHT22;3623;47.098;15.446;2023-03-14T03:27:36;8.50;99.90
7163;DHT22;3623;47.098;15.446;2023-03-14T03:30:05;9.00;99.90
7163;DHT22;3623;47.098;15.446;2023-03-14T03:32:34;9.10;99.90
7163;DHT22;3623;47.098;15.446;2023-03-14T03:35:02;9.40;99.90
7163;DHT22;3623;47.098;15.446;2023-03-14T03:37:30;9.20;99.90
7163;DHT22;3623;47.098;15.446;2023-03-14T03:39:58;8.90;99.90
7163;DHT22;3623;47.098;15.446;2023-03-14T03:42:26;8.60;99.90
7163;DHT22;3623;47.098;15.446;2023-03-14T03:45:00;8.60;99.90
7163;DHT22;3623;47.098;15.446;2023-03-14T03:47:27;8.50;99.90
7163;DHT22;3623;47.098;15.446;2023-03-14T03:49:56;8.60;99.90
7163;DHT22;3623;47.098;15.446;2023-03-14T03:52:23;8.80;99.90
7163;DHT22;3623;47.098;15.446;2023-03-14T03:54:52;8.60;99.90
7163;DHT22;3623;47.098;15.446;2023-03-14T03:57:20;8.90;99.90
7163;DHT22;3623;47.098;15.446;2023-03-14T03:59:47;8.80;99.90
7163;DHT22;3623;47.098;15.446;2023-03-14T04:02:14;8.60;99.90
7163;DHT22;3623;47.098;15.446;2023-03-14T04:04:48;8.50;99.90
7163;DHT22;3623;47.098;15.446;2023-03-14T04:07:17;7.80;99.90
7163;DHT22;3623;47.098;15.446;2023-03-14T04:09:44;8.20;99.90
7163;DHT22;3623;47.098;15.446;2023-03-14T04:12:11;8.30;99.90
7163;DHT22;3623;47.098;15.446;2023-03-14T04:14:41;8.50;99.90
7163;DHT22;3623;47.098;15.446;2023-03-14T04:17:08;8.50;99.90
7163;DHT22;3623;47.098;15.446;2023-03-14T04:19:35;8.80;99.90
7163;DHT22;3623;47.098;15.446;2023-03-14T04:22:02;8.50;99.90
7163;DHT22;3623;47.098;15.446;2023-03-14T04:24:37;8.20;99.90
7163;DHT22;3623;47.098;15.446;2023-03-14T04:27:04;8.10;99.90
7163;DHT22;3623;47.098;15.446;2023-03-14T04:29:31;8.00;99.90
7163;DHT22;3623;47.098;15.446;2023-03-14T04:31:58;8.10;99.90
7163;DHT22;3623;47.098;15.446;2023-03-14T04:34:37;8.20;99.90
7163;DHT22;3623;47.098;15.446;2023-03-14T04:37:04;8.40;99.90
7163;DHT22;3623;47.098;15.446;2023-03-14T04:39:32;8.60;99.90
7163;DHT22;3623;47.098;15.446;2023-03-14T04:42:00;8.80;99.90
7163;DHT22;3623;47.098;15.446;2023-03-14T04:44:29;9.20;99.90
7163;DHT22;3623;47.098;15.446;2023-03-14T04:46:57;9.40;99.90
7163;DHT22;3623;47.098;15.446;2023-03-14T04:49:24;9.30;99.90
7163;DHT22;3623;47.098;15.446;2023-03-14T04:51:51;9.20;99.90
7163;DHT22;3623;47.098;15.446;2023-03-14T04:54:25;9.10;99.90
7163;DHT22;3623;47.098;15.446;2023-03-14T04:56:52;9.20;99.90
7163;DHT22;3623;47.098;15.446;2023-03-14T04:59:21;9.20;99.90
7163;DHT22;3623;47.098;15.446;2023-03-14T05:01:49;9.20;99.90
7163;DHT22;3623;47.098;15.446;2023-03-14T05:04:18;8.60;99.90
7163;DHT22;3623;47.098;15.446;2023-03-14T05:06:45;8.80;99.90
7163;DHT22;3623;47.098;15.446;2023-03-14T05:09:12;8.70;99.90
7163;DHT22;3623;47.098;15.446;2023-03-14T05:11:40;9.00;99.90
7163;DHT22;3623;47.098;15.446;2023-03-14T05:14:07;8.40;99.90
7163;DHT22;3623;47.098;15.446;2023-03-14T05:16:36;8.30;99.90
7163;DHT22;3623;47.098;15.446;2023-03-14T05:19:03;8.50;99.90
7163;DHT22;3623;47.098;15.446;2023-03-14T05:21:30;9.00;99.90
7163;DHT22;3623;47.098;15.446;2023-03-14T05:23:57;8.90;99.90
7163;DHT22;3623;47.098;15.446;2023-03-14T05:26:31;9.30;99.90
7163;DHT22;3623;47.098;15.446;2023-03-14T05:29:00;9.00;99.90
7163;DHT22;3623;47.098;15.446;2023-03-14T05:31:27;9.20;99.90
7163;DHT22;3623;47.098;15.446;2023-03-14T05:33:56;9.50;99.90
7163;DHT22;3623;47.098;15.446;2023-03-14T05:39:51;9.30;99.90
7163;DHT22;3623;47.098;15.446;2023-03-14T05:42:18;9.70;99.90
7163;DHT22;3623;47.098;15.446;2023-03-14T05:44:47;9.70;99.90
7163;DHT22;3623;47.098;15.446;2023-03-14T05:47:14;9.30;99.90
7163;DHT22;3623;47.098;15.446;2023-03-14T05:49:42;8.90;99.90
7163;DHT22;3623;47.098;15.446;2023-03-14T05:52:09;8.60;99.90
7163;DHT22;3623;47.098;15.446;2023-03-14T05:54:46;8.40;99.90
7163;DHT22;3623;47.098;15.446;2023-03-14T05:57:14;8.50;99.90
7163;DHT22;3623;47.098;15.446;2023-03-14T05:59:41;8.70;99.90
7163;DHT22;3623;47.098;15.446;2023-03-14T06:02:08;8.90;99.90
7163;DHT22;3623;47.098;15.446;2023-03-14T06:04:35;9.20;99.90
7163;DHT22;3623;47.098;15.446;2023-03-14T06:07:04;9.50;99.90
7163;DHT22;3623;47.098;15.446;2023-03-14T06:09:31;9.50;99.90
7163;DHT22;3623;47.098;15.446;2023-03-14T06:11:58;9.30;99.90
7163;DHT22;3623;47.098;15.446;2023-03-14T06:14:27;9.60;99.90
7163;DHT22;3623;47.098;15.446;2023-03-14T06:16:54;9.40;99.90
7163;DHT22;3623;47.098;15.446;2023-03-14T06:19:21;9.30;99.90
7163;DHT22;3623;47.098;15.446;2023-03-14T06:21:50;9.70;99.90
7163;DHT22;3623;47.098;15.446;2023-03-14T06:24:21;10.10;99.90
7163;DHT22;3623;47.098;15.446;2023-03-14T06:26:48;10.40;99.90
7163;DHT22;3623;47.098;15.446;2023-03-14T06:29:15;10.60;99.90
7163;DHT22;3623;47.098;15.446;2023-03-14T06:31:42;10.60;99.90
7163;DHT22;3623;47.098;15.446;2023-03-14T06:34:10;10.80;99.90
7163;DHT22;3623;47.098;15.446;2023-03-14T06:36:37;10.70;99.90
7163;DHT22;3623;47.098;15.446;2023-03-14T06:39:04;10.20;99.90
7163;DHT22;3623;47.098;15.446;2023-03-14T06:41:32;9.70;99.90
7163;DHT22;3623;47.098;15.446;2023-03-14T06:44:00;9.50;99.90
7163;DHT22;3623;47.098;15.446;2023-03-14T06:46:28;9.70;99.90
7163;DHT22;3623;47.098;15.446;2023-03-14T06:48:55;10.10;99.90
7163;DHT22;3623;47.098;15.446;2023-03-14T06:51:23;10.50;99.90
7163;DHT22;3623;47.098;15.446;2023-03-14T06:53:50;10.80;99.90
7163;DHT22;3623;47.098;15.446;2023-03-14T06:56:17;11.10;99.90
7163;DHT22;3623;47.098;15.446;2023-03-14T06:58:45;10.90;99.90
7163;DHT22;3623;47.098;15.446;2023-03-14T07:01:20;10.70;99.90
7163;DHT22;3623;47.098;15.446;2023-03-14T07:03:48;11.20;99.90
7163;DHT22;3623;47.098;15.446;2023-03-14T07:06:16;11.20;99.90
7163;DHT22;3623;47.098;15.446;2023-03-14T07:08:43;11.30;99.90
7163;DHT22;3623;47.098;15.446;2023-03-14T07:11:10;11.30;99.90
7163;DHT22;3623;47.098;15.446;2023-03-14T07:13:38;11.40;99.90
7163;DHT22;3623;47.098;15.446;2023-03-14T07:16:07;11.10;99.90
7163;DHT22;3623;47.098;15.446;2023-03-14T07:18:35;11.60;99.90
7163;DHT22;3623;47.098;15.446;2023-03-14T07:21:03;11.60;99.90
7163;DHT22;3623;47.098;15.446;2023-03-14T07:23:30;11.60;99.90
7163;DHT22;3623;47.098;15.446;2023-03-14T07:25:59;11.70;99.90
7163;DHT22;3623;47.098;15.446;2023-03-14T07:28:26;11.80;99.90
7163;DHT22;3623;47.098;15.446;2023-03-14T07:30:54;12.20;99.90
7163;DHT22;3623;47.098;15.446;2023-03-14T07:33:23;12.10;99.90
7163;DHT22;3623;47.098;15.446;2023-03-14T07:35:52;12.10;99.90
7163;DHT22;3623;47.098;15.446;2023-03-14T07:38:19;12.10;99.90
7163;DHT22;3623;47.098;15.446;2023-03-14T07:40:46;12.10;99.90
7163;DHT22;3623;47.098;15.446;2023-03-14T07:43:13;12.10;99.90
7163;DHT22;3623;47.098;15.446;2023-03-14T07:45:45;12.20;99.90
7163;DHT22;3623;47.098;15.446;2023-03-14T07:48:13;12.20;99.90
7163;DHT22;3623;47.098;15.446;2023-03-14T07:50:41;12.20;99.90
7163;DHT22;3623;47.098;15.446;2023-03-14T07:53:09;12.20;99.90
7163;DHT22;3623;47.098;15.446;2023-03-14T07:55:36;12.20;99.90
7163;DHT22;3623;47.098;15.446;2023-03-14T07:58:03;12.30;99.90
7163;DHT22;3623;47.098;15.446;2023-03-14T08:00:30;12.50;99.90
7163;DHT22;3623;47.098;15.446;2023-03-14T08:02:57;12.60;99.90
7163;DHT22;3623;47.098;15.446;2023-03-14T08:05:26;12.70;99.90
7163;DHT22;3623;47.098;15.446;2023-03-14T08:07:54;12.70;99.90
7163;DHT22;3623;47.098;15.446;2023-03-14T08:10:22;12.70;99.90
7163;DHT22;3623;47.098;15.446;2023-03-14T08:12:49;12.80;99.90
7163;DHT22;3623;47.098;15.446;2023-03-14T08:15:17;13.00;99.90
7163;DHT22;3623;47.098;15.446;2023-03-14T08:17:44;13.10;99.90
7163;DHT22;3623;47.098;15.446;2023-03-14T08:20:16;13.30;99.90
7163;DHT22;3623;47.098;15.446;2023-03-14T08:22:43;13.40;99.90
7163;DHT22;3623;47.098;15.446;2023-03-14T08:25:14;13.40;99.90
7163;DHT22;3623;47.098;15.446;2023-03-14T08:27:42;13.70;99.90
7163;DHT22;3623;47.098;15.446;2023-03-14T08:30:11;13.80;99.90
7163;DHT22;3623;47.098;15.446;2023-03-14T08:32:39;13.90;99.90
7163;DHT22;3623;47.098;15.446;2023-03-14T08:35:07;14.00;99.90
7163;DHT22;3623;47.098;15.446;2023-03-14T08:37:34;14.00;99.90
7163;DHT22;3623;47.098;15.446;2023-03-14T08:40:02;13.80;99.90
7163;DHT22;3623;47.098;15.446;2023-03-14T08:42:33;13.70;99.90
7163;DHT22;3623;47.098;15.446;2023-03-14T08:45:02;13.70;99.90
7163;DHT22;3623;47.098;15.446;2023-03-14T08:47:29;13.90;99.90
7163;DHT22;3623;47.098;15.446;2023-03-14T08:49:56;14.00;99.90
7163;DHT22;3623;47.098;15.446;2023-03-14T08:52:24;14.00;99.90
7163;DHT22;3623;47.098;15.446;2023-03-14T08:54:51;14.10;99.90
7163;DHT22;3623;47.098;15.446;2023-03-14T08:57:18;14.00;99.90
7163;DHT22;3623;47.098;15.446;2023-03-14T08:59:48;14.10;99.90
7163;DHT22;3623;47.098;15.446;2023-03-14T09:02:15;14.30;99.90
7163;DHT22;3623;47.098;15.446;2023-03-14T09:04:43;14.30;99.90
7163;DHT22;3623;47.098;15.446;2023-03-14T09:07:10;14.20;99.90
7163;DHT22;3623;47.098;15.446;2023-03-14T09:09:37;14.30;99.90
7163;DHT22;3623;47.098;15.446;2023-03-14T09:12:04;14.30;99.90
7163;DHT22;3623;47.098;15.446;2023-03-14T09:14:31;14.40;99.90
7163;DHT22;3623;47.098;15.446;2023-03-14T09:17:00;14.50;99.90
7163;DHT22;3623;47.098;15.446;2023-03-14T09:19:27;14.70;99.90
7163;DHT22;3623;47.098;15.446;2023-03-14T09:21:54;15.10;99.90
7163;DHT22;3623;47.098;15.446;2023-03-14T09:24:23;15.40;99.90
7163;DHT22;3623;47.098;15.446;2023-03-14T09:26:50;15.30;99.90
7163;DHT22;3623;47.098;15.446;2023-03-14T09:29:17;15.10;99.90
7163;DHT22;3623;47.098;15.446;2023-03-14T09:31:44;15.00;99.90
7163;DHT22;3623;47.098;15.446;2023-03-14T09:34:12;14.90;99.90
7163;DHT22;3623;47.098;15.446;2023-03-14T09:36:40;14.90;99.90
7163;DHT22;3623;47.098;15.446;2023-03-14T09:39:07;14.90;99.90
7163;DHT22;3623;47.098;15.446;2023-03-14T09:41:35;14.80;99.90
7163;DHT22;3623;47.098;15.446;2023-03-14T09:44:08;14.70;99.90
7163;DHT22;3623;47.098;15.446;2023-03-14T09:46:38;14.50;99.90
7163;DHT22;3623;47.098;15.446;2023-03-14T09:49:13;14.30;99.90
7163;DHT22;3623;47.098;15.446;2023-03-14T09:51:42;14.20;99.90
7163;DHT22;3623;47.098;15.446;2023-03-14T09:54:22;14.10;99.90
7163;DHT22;3623;47.098;15.446;2023-03-14T09:56:51;14.00;99.90
7163;DHT22;3623;47.098;15.446;2023-03-14T09:59:19;13.90;99.90
7163;DHT22;3623;47.098;15.446;2023-03-14T10:01:47;13.90;99.90
7163;DHT22;3623;47.098;15.446;2023-03-14T10:04:21;13.80;99.90
7163;DHT22;3623;47.098;15.446;2023-03-14T10:06:48;13.60;99.90
7163;DHT22;3623;47.098;15.446;2023-03-14T10:09:19;13.70;99.90
7163;DHT22;3623;47.098;15.446;2023-03-14T10:11:53;13.70;99.90
7163;DHT22;3623;47.098;15.446;2023-03-14T10:14:33;13.70;99.90
7163;DHT22;3623;47.098;15.446;2023-03-14T10:17:09;13.90;99.90
7163;DHT22;3623;47.098;15.446;2023-03-14T10:19:53;14.10;99.90
7163;DHT22;3623;47.098;15.446;2023-03-14T10:22:21;14.40;99.90
7163;DHT22;3623;47.098;15.446;2023-03-14T10:24:52;14.50;99.90
7163;DHT22;3623;47.098;15.446;2023-03-14T10:27:27;14.70;99.90
7163;DHT22;3623;47.098;15.446;2023-03-14T10:29:56;15.00;99.90
7163;DHT22;3623;47.098;15.446;2023-03-14T10:32:29;15.00;99.90
7163;DHT22;3623;47.098;15.446;2023-03-14T10:35:17;15.20;99.90
7163;DHT22;3623;47.098;15.446;2023-03-14T10:37:51;15.30;99.90
7163;DHT22;3623;47.098;15.446;2023-03-14T10:40:24;15.60;99.90
7163;DHT22;3623;47.098;15.446;2023-03-14T10:42:52;16.10;99.90
7163;DHT22;3623;47.098;15.446;2023-03-14T10:45:40;16.30;99.90
7163;DHT22;3623;47.098;15.446;2023-03-14T10:48:30;16.40;99.90
7163;DHT22;3623;47.098;15.446;2023-03-14T10:51:04;16.40;99.90
7163;DHT22;3623;47.098;15.446;2023-03-14T10:53:40;16.10;99.90
7163;DHT22;3623;47.098;15.446;2023-03-14T10:56:12;15.90;99.90
7163;DHT22;3623;47.098;15.446;2023-03-14T10:58:42;15.80;99.90
7163;DHT22;3623;47.098;15.446;2023-03-14T11:01:23;15.60;99.90
7163;DHT22;3623;47.098;15.446;2023-03-14T11:03:56;15.30;99.90
7163;DHT22;3623;47.098;15.446;2023-03-14T11:06:33;15.10;99.90
7163;DHT22;3623;47.098;15.446;2023-03-14T11:09:06;15.10;99.90
7163;DHT22;3623;47.098;15.446;2023-03-14T11:11:39;14.90;99.90
7163;DHT22;3623;47.098;15.446;2023-03-14T11:14:26;15.00;99.90
7163;DHT22;3623;47.098;15.446;2023-03-14T11:17:00;15.00;99.90
7163;DHT22;3623;47.098;15.446;2023-03-14T11:19:42;15.10;99.90
7163;DHT22;3623;47.098;15.446;2023-03-14T11:22:20;15.00;99.90
7163;DHT22;3623;47.098;15.446;2023-03-14T11:24:58;15.00;99.90
7163;DHT22;3623;47.098;15.446;2023-03-14T11:27:35;15.00;99.90
7163;DHT22;3623;47.098;15.446;2023-03-14T11:30:17;15.00;99.90
7163;DHT22;3623;47.098;15.446;2023-03-14T11:32:46;15.20;99.90
7163;DHT22;3623;47.098;15.446;2023-03-14T11:35:17;15.50;99.90
7163;DHT22;3623;47.098;15.446;2023-03-14T11:37:52;15.50;99.90
7163;DHT22;3623;47.098;15.446;2023-03-14T11:40:21;15.90;99.90
7163;DHT22;3623;47.098;15.446;2023-03-14T11:42:56;16.40;99.90
7163;DHT22;3623;47.098;15.446;2023-03-14T11:45:30;16.30;99.90
7163;DHT22;3623;47.098;15.446;2023-03-14T11:48:16;16.20;99.90
7163;DHT22;3623;47.098;15.446;2023-03-14T11:50:48;16.20;99.90
7163;DHT22;3623;47.098;15.446;2023-03-14T11:53:20;15.60;99.90
7163;DHT22;3623;47.098;15.446;2023-03-14T11:55:49;15.40;99.90
7163;DHT22;3623;47.098;15.446;2023-03-14T11:58:20;15.40;99.90
7163;DHT22;3623;47.098;15.446;2023-03-14T12:00:49;15.30;99.90
7163;DHT22;3623;47.098;15.446;2023-03-14T12:03:24;15.40;99.90
7163;DHT22;3623;47.098;15.446;2023-03-14T12:06:00;16.00;99.90
7163;DHT22;3623;47.098;15.446;2023-03-14T12:08:43;16.10;99.90
7163;DHT22;3623;47.098;15.446;2023-03-14T12:11:30;15.70;99.90
7163;DHT22;3623;47.098;15.446;2023-03-14T12:13:58;15.70;99.90
7163;DHT22;3623;47.098;15.446;2023-03-14T12:16:38;15.70;99.90
7163;DHT22;3623;47.098;15.446;2023-03-14T12:19:29;16.00;99.90
7163;DHT22;3623;47.098;15.446;2023-03-14T12:22:00;16.30;99.90
7163;DHT22;3623;47.098;15.446;2023-03-14T12:24:32;16.30;99.90
7163;DHT22;3623;47.098;15.446;2023-03-14T12:27:02;16.30;99.90
7163;DHT22;3623;47.098;15.446;2023-03-14T12:29:30;16.20;99.90
7163;DHT22;3623;47.098;15.446;2023-03-14T12:34:50;16.00;99.90
7163;DHT22;3623;47.098;15.446;2023-03-14T12:37:24;15.80;99.90
7163;DHT22;3623;47.098;15.446;2023-03-14T12:40:10;15.50;99.90
7163;DHT22;3623;47.098;15.446;2023-03-14T12:42:51;15.20;99.90
7163;DHT22;3623;47.098;15.446;2023-03-14T12:45:26;15.10;99.90
7163;DHT22;3623;47.098;15.446;2023-03-14T12:50:44;14.60;99.90
7163;DHT22;3623;47.098;15.446;2023-03-14T12:56:59;14.60;99.90
7163;DHT22;3623;47.098;15.446;2023-03-14T12:59:32;14.60;99.90
7163;DHT22;3623;47.098;15.446;2023-03-14T13:02:02;14.60;99.90
7163;DHT22;3623;47.098;15.446;2023-03-14T13:04:34;14.50;99.90
7163;DHT22;3623;47.098;15.446;2023-03-14T13:07:03;14.50;99.90
7163;DHT22;3623;47.098;15.446;2023-03-14T13:09:53;14.40;99.90
7163;DHT22;3623;47.098;15.446;2023-03-14T13:12:29;14.50;99.90
7163;DHT22;3623;47.098;15.446;2023-03-14T13:14:59;14.40;99.90
7163;DHT22;3623;47.098;15.446;2023-03-14T13:17:32;14.40;99.90
7163;DHT22;3623;47.098;15.446;2023-03-14T13:20:03;14.50;99.90
7163;DHT22;3623;47.098;15.446;2023-03-14T13:22:33;14.50;99.90
7163;DHT22;3623;47.098;15.446;2023-03-14T13:25:05;14.50;99.90
7163;DHT22;3623;47.098;15.446;2023-03-14T13:27:35;14.40;99.90
7163;DHT22;3623;47.098;15.446;2023-03-14T13:30:15;14.20;99.90
7163;DHT22;3623;47.098;15.446;2023-03-14T13:32:44;14.10;99.90
7163;DHT22;3623;47.098;15.446;2023-03-14T13:35:18;14.00;99.90
7163;DHT22;3623;47.098;15.446;2023-03-14T13:37:45;13.90;99.90
7163;DHT22;3623;47.098;15.446;2023-03-14T13:40:23;13.80;99.90
7163;DHT22;3623;47.098;15.446;2023-03-14T13:43:02;13.80;99.90
7163;DHT22;3623;47.098;15.446;2023-03-14T13:45:31;13.70;99.90
7163;DHT22;3623;47.098;15.446;2023-03-14T13:47:58;13.70;99.90
7163;DHT22;3623;47.098;15.446;2023-03-14T13:50:25;13.80;99.90
7163;DHT22;3623;47.098;15.446;2023-03-14T13:52:56;13.80;99.90
7163;DHT22;3623;47.098;15.446;2023-03-14T13:55:25;13.80;99.90
7163;DHT22;3623;47.098;15.446;2023-03-14T13:57:53;13.90;99.90
7163;DHT22;3623;47.098;15.446;2023-03-14T14:00:24;13.90;99.90
7163;DHT22;3623;47.098;15.446;2023-03-14T14:02:53;13.80;99.90
7163;DHT22;3623;47.098;15.446;2023-03-14T14:05:22;13.70;99.90
7163;DHT22;3623;47.098;15.446;2023-03-14T14:07:50;13.70;99.90
7163;DHT22;3623;47.098;15.446;2023-03-14T14:10:18;13.60;99.90
7163;DHT22;3623;47.098;15.446;2023-03-14T14:12:48;13.60;99.90
7163;DHT22;3623;47.098;15.446;2023-03-14T14:15:21;13.50;99.90
7163;DHT22;3623;47.098;15.446;2023-03-14T14:17:52;13.60;99.90
7163;DHT22;3623;47.098;15.446;2023-03-14T14:20:26;13.60;99.90
7163;DHT22;3623;47.098;15.446;2023-03-14T14:22:58;13.60;99.90
7163;DHT22;3623;47.098;15.446;2023-03-14T14:25:28;13.50;99.90
7163;DHT22;3623;47.098;15.446;2023-03-14T14:27:55;13.50;99.90
7163;DHT22;3623;47.098;15.446;2023-03-14T14:30:32;13.50;99.90
7163;DHT22;3623;47.098;15.446;2023-03-14T14:33:18;13.50;99.90
7163;DHT22;3623;47.098;15.446;2023-03-14T14:35:56;13.60;99.90
7163;DHT22;3623;47.098;15.446;2023-03-14T14:38:25;13.50;99.90
7163;DHT22;3623;47.098;15.446;2023-03-14T14:41:00;13.60;99.90
7163;DHT22;3623;47.098;15.446;2023-03-14T14:43:30;13.70;99.90
7163;DHT22;3623;47.098;15.446;2023-03-14T14:46:06;13.50;99.90
7163;DHT22;3623;47.098;15.446;2023-03-14T14:48:38;13.70;99.90
7163;DHT22;3623;47.098;15.446;2023-03-14T14:51:07;14.60;99.90
7163;DHT22;3623;47.098;15.446;2023-03-14T14:53:37;13.60;99.90
7163;DHT22;3623;47.098;15.446;2023-03-14T14:56:14;13.60;99.90
7163;DHT22;3623;47.098;15.446;2023-03-14T14:58:46;13.60;99.90
7163;DHT22;3623;47.098;15.446;2023-03-14T15:01:15;13.60;99.90
7163;DHT22;3623;47.098;15.446;2023-03-14T15:03:46;13.90;99.90
7163;DHT22;3623;47.098;15.446;2023-03-14T15:06:16;13.70;99.90
7163;DHT22;3623;47.098;15.446;2023-03-14T15:08:45;13.80;99.90
7163;DHT22;3623;47.098;15.446;2023-03-14T15:11:16;13.90;99.90
7163;DHT22;3623;47.098;15.446;2023-03-14T15:13:44;13.90;99.90
7163;DHT22;3623;47.098;15.446;2023-03-14T15:16:15;14.00;99.90
7163;DHT22;3623;47.098;15.446;2023-03-14T15:18:44;14.00;99.90
7163;DHT22;3623;47.098;15.446;2023-03-14T15:21:14;14.20;99.90
7163;DHT22;3623;47.098;15.446;2023-03-14T15:23:41;14.10;99.90
7163;DHT22;3623;47.098;15.446;2023-03-14T15:26:12;14.10;99.90
7163;DHT22;3623;47.098;15.446;2023-03-14T15:28:40;14.20;99.90
7163;DHT22;3623;47.098;15.446;2023-03-14T15:31:09;14.20;99.90
7163;DHT22;3623;47.098;15.446;2023-03-14T15:33:37;14.10;99.90
7163;DHT22;3623;47.098;15.446;2023-03-14T15:36:19;13.90;99.90
7163;DHT22;3623;47.098;15.446;2023-03-14T15:38:47;13.90;99.90
7163;DHT22;3623;47.098;15.446;2023-03-14T15:41:15;13.80;99.90
7163;DHT22;3623;47.098;15.446;2023-03-14T15:43:43;13.80;99.90
7163;DHT22;3623;47.098;15.446;2023-03-14T15:46:16;13.60;99.90
7163;DHT22;3623;47.098;15.446;2023-03-14T15:48:44;13.60;99.90
7163;DHT22;3623;47.098;15.446;2023-03-14T15:51:13;13.60;99.90
7163;DHT22;3623;47.098;15.446;2023-03-14T15:53:41;13.60;99.90
7163;DHT22;3623;47.098;15.446;2023-03-14T15:56:11;13.60;99.90
7163;DHT22;3623;47.098;15.446;2023-03-14T15:58:39;13.50;99.90
7163;DHT22;3623;47.098;15.446;2023-03-14T16:01:06;13.50;99.90
7163;DHT22;3623;47.098;15.446;2023-03-14T16:03:38;13.40;99.90
7163;DHT22;3623;47.098;15.446;2023-03-14T16:06:06;13.30;99.90
7163;DHT22;3623;47.098;15.446;2023-03-14T16:08:34;13.30;99.90
7163;DHT22;3623;47.098;15.446;2023-03-14T16:11:01;13.30;99.90
7163;DHT22;3623;47.098;15.446;2023-03-14T16:13:28;13.20;99.90
7163;DHT22;3623;47.098;15.446;2023-03-14T16:16:04;13.00;99.90
7163;DHT22;3623;47.098;15.446;2023-03-14T16:18:33;12.90;99.90
7163;DHT22;3623;47.098;15.446;2023-03-14T16:21:03;12.80;99.90
7163;DHT22;3623;47.098;15.446;2023-03-14T16:23:31;12.80;99.90
7163;DHT22;3623;47.098;15.446;2023-03-14T16:26:03;12.70;99.90